sensor_id;sensor_type;location;lat;lon;timestamp;P1;durP1;ratioP1;P2;durP2;ratioP2
60098;SDS011;62818;49.394;8.686;2024-03-23T00:58:33;10.13;;;6.20;;
60098;SDS011;62818;49.394;8.686;2024-03-23T01:03:35;12.32;;;5.63;;
60098;SDS011;62818;49.394;8.686;2024-03-23T01:08:35;8.88;;;6.20;;
60098;SDS011;62818;49.394;8.686;2024-03-23T01:13:36;10.52;;;6.53;;
60098;SDS011;62818;49.394;8.686;2024-03-23T01:18:36;7.63;;;5.93;;
60098;SDS011;62818;49.394;8.686;2024-03-23T01:23:37;11.77;;;7.00;;
60098;SDS011;62818;49.394;8.686;2024-03-23T01:33:38;7.93;;;6.07;;
60098;SDS011;62818;49.394;8.686;2024-03-23T01:38:39;8.73;;;6.32;;
60098;SDS011;62818;49.394;8.686;2024-03-23T01:43:39;11.60;;;6.95;;
60098;SDS011;62818;49.394;8.686;2024-03-23T01:48:41;8.23;;;6.32;;
60098;SDS011;62818;49.394;8.686;2024-03-23T01:53:42;8.48;;;6.05;;
60098;SDS011;62818;49.394;8.686;2024-03-23T01:58:42;8.52;;;5.43;;
60098;SDS011;62818;49.394;8.686;2024-03-23T02:08:43;10.00;;;5.77;;
60098;SDS011;62818;49.394;8.686;2024-03-23T02:13:44;8.48;;;5.50;;
60098;SDS011;62818;49.394;8.686;2024-03-23T02:18:44;9.60;;;5.93;;
60098;SDS011;62818;49.394;8.686;2024-03-23T02:23:45;7.00;;;4.95;;
60098;SDS011;62818;49.394;8.686;2024-03-23T02:28:45;11.27;;;5.72;;
60098;SDS011;62818;49.394;8.686;2024-03-23T02:33:46;10.32;;;5.00;;
60098;SDS011;62818;49.394;8.686;2024-03-23T02:38:46;8.13;;;5.00;;
60098;SDS011;62818;49.394;8.686;2024-03-23T02:43:48;9.20;;;5.10;;
60098;SDS011;62818;49.394;8.686;2024-03-23T02:48:49;7.47;;;4.82;;
60098;SDS011;62818;49.394;8.686;2024-03-23T02:53:50;9.02;;;5.05;;
60098;SDS011;62818;49.394;8.686;2024-03-23T02:58:51;11.30;;;6.22;;
60098;SDS011;62818;49.394;8.686;2024-03-23T03:03:51;6.90;;;5.18;;
60098;SDS011;62818;49.394;8.686;2024-03-23T03:08:52;7.68;;;5.45;;
60098;SDS011;62818;49.394;8.686;2024-03-23T03:13:52;6.82;;;5.10;;
60098;SDS011;62818;49.394;8.686;2024-03-23T03:23:53;8.33;;;5.23;;
60098;SDS011;62818;49.394;8.686;2024-03-23T03:28:56;9.75;;;5.28;;
60098;SDS011;62818;49.394;8.686;2024-03-23T03:33:56;9.32;;;5.65;;
60098;SDS011;62818;49.394;8.686;2024-03-23T03:43:57;11.53;;;6.63;;
60098;SDS011;62818;49.394;8.686;2024-03-23T03:49:01;12.77;;;6.03;;
60098;SDS011;62818;49.394;8.686;2024-03-23T03:54:02;10.88;;;6.47;;
60098;SDS011;62818;49.394;8.686;2024-03-23T03:59:03;13.40;;;7.03;;
60098;SDS011;62818;49.394;8.686;2024-03-23T04:09:03;10.52;;;6.28;;
60098;SDS011;62818;49.394;8.686;2024-03-23T04:14:04;9.43;;;7.97;;
60098;SDS011;62818;49.394;8.686;2024-03-23T04:24:05;10.75;;;7.32;;
60098;SDS011;62818;49.394;8.686;2024-03-23T04:34:07;17.13;;;9.63;;
60098;SDS011;62818;49.394;8.686;2024-03-23T04:39:07;14.15;;;9.98;;
60098;SDS011;62818;49.394;8.686;2024-03-23T04:44:08;15.88;;;11.25;;
60098;SDS011;62818;49.394;8.686;2024-03-23T04:49:10;18.38;;;12.52;;
60098;SDS011;62818;49.394;8.686;2024-03-23T04:54:10;18.88;;;13.93;;
60098;SDS011;62818;49.394;8.686;2024-03-23T05:04:11;13.57;;;9.00;;
60098;SDS011;62818;49.394;8.686;2024-03-23T05:14:16;10.15;;;7.32;;
60098;SDS011;62818;49.394;8.686;2024-03-23T05:19:16;9.50;;;6.68;;
60098;SDS011;62818;49.394;8.686;2024-03-23T05:29:17;11.17;;;4.80;;
60098;SDS011;62818;49.394;8.686;2024-03-23T05:34:18;7.05;;;4.00;;
60098;SDS011;62818;49.394;8.686;2024-03-23T05:44:21;4.38;;;2.45;;
60098;SDS011;62818;49.394;8.686;2024-03-23T05:54:22;2.90;;;2.33;;
60098;SDS011;62818;49.394;8.686;2024-03-23T05:59:23;6.60;;;3.83;;
60098;SDS011;62818;49.394;8.686;2024-03-23T06:04:23;3.97;;;3.58;;
60098;SDS011;62818;49.394;8.686;2024-03-23T06:09:24;4.68;;;3.50;;
60098;SDS011;62818;49.394;8.686;2024-03-23T06:19:26;2.88;;;2.40;;
60098;SDS011;62818;49.394;8.686;2024-03-23T06:24:27;3.10;;;2.80;;
60098;SDS011;62818;49.394;8.686;2024-03-23T06:29:28;2.55;;;2.35;;
60098;SDS011;62818;49.394;8.686;2024-03-23T06:34:28;2.50;;;2.30;;
60098;SDS011;62818;49.394;8.686;2024-03-23T06:39:29;1.90;;;1.80;;
60098;SDS011;62818;49.394;8.686;2024-03-23T06:44:29;1.67;;;1.58;;
60098;SDS011;62818;49.394;8.686;2024-03-23T06:49:30;1.52;;;1.48;;
60098;SDS011;62818;49.394;8.686;2024-03-23T06:54:30;1.50;;;1.50;;
60098;SDS011;62818;49.394;8.686;2024-03-23T06:59:31;1.57;;;1.50;;
60098;SDS011;62818;49.394;8.686;2024-03-23T07:04:31;1.40;;;1.30;;
60098;SDS011;62818;49.394;8.686;2024-03-23T07:09:32;1.53;;;1.30;;
60098;SDS011;62818;49.394;8.686;2024-03-23T07:14:32;2.55;;;1.60;;
60098;SDS011;62818;49.394;8.686;2024-03-23T07:19:33;1.58;;;1.50;;
60098;SDS011;62818;49.394;8.686;2024-03-23T07:24:33;1.40;;;1.40;;
60098;SDS011;62818;49.394;8.686;2024-03-23T07:29:34;2.13;;;1.25;;
60098;SDS011;62818;49.394;8.686;2024-03-23T07:34:34;1.52;;;1.40;;
60098;SDS011;62818;49.394;8.686;2024-03-23T07:39:35;1.80;;;1.70;;
60098;SDS011;62818;49.394;8.686;2024-03-23T07:44:35;1.40;;;1.40;;
60098;SDS011;62818;49.394;8.686;2024-03-23T07:49:36;1.60;;;1.50;;
60098;SDS011;62818;49.394;8.686;2024-03-23T07:54:36;1.52;;;1.50;;
60098;SDS011;62818;49.394;8.686;2024-03-23T07:59:37;2.47;;;1.70;;
60098;SDS011;62818;49.394;8.686;2024-03-23T08:04:38;4.93;;;1.77;;
60098;SDS011;62818;49.394;8.686;2024-03-23T08:09:39;2.00;;;1.80;;
60098;SDS011;62818;49.394;8.686;2024-03-23T08:14:39;4.13;;;2.13;;
60098;SDS011;62818;49.394;8.686;2024-03-23T08:19:39;6.17;;;1.93;;
60098;SDS011;62818;49.394;8.686;2024-03-23T08:24:40;2.90;;;2.20;;
60098;SDS011;62818;49.394;8.686;2024-03-23T08:29:40;2.17;;;1.97;;
60098;SDS011;62818;49.394;8.686;2024-03-23T08:34:41;2.50;;;2.15;;
60098;SDS011;62818;49.394;8.686;2024-03-23T08:39:43;2.77;;;2.17;;
60098;SDS011;62818;49.394;8.686;2024-03-23T08:44:43;1.92;;;1.80;;
60098;SDS011;62818;49.394;8.686;2024-03-23T08:49:46;3.80;;;2.03;;
60098;SDS011;62818;49.394;8.686;2024-03-23T08:54:47;6.43;;;2.28;;
60098;SDS011;62818;49.394;8.686;2024-03-23T08:59:47;7.20;;;2.80;;
60098;SDS011;62818;49.394;8.686;2024-03-23T09:04:47;9.40;;;2.83;;
60098;SDS011;62818;49.394;8.686;2024-03-23T09:09:48;6.25;;;2.95;;
60098;SDS011;62818;49.394;8.686;2024-03-23T09:14:49;8.67;;;2.83;;
60098;SDS011;62818;49.394;8.686;2024-03-23T09:19:50;6.07;;;2.65;;
60098;SDS011;62818;49.394;8.686;2024-03-23T09:29:51;6.77;;;2.70;;
60098;SDS011;62818;49.394;8.686;2024-03-23T09:39:52;13.33;;;3.43;;
60098;SDS011;62818;49.394;8.686;2024-03-23T09:44:52;5.47;;;3.00;;
60098;SDS011;62818;49.394;8.686;2024-03-23T09:49:54;7.95;;;3.17;;
60098;SDS011;62818;49.394;8.686;2024-03-23T09:59:55;9.83;;;3.67;;
60098;SDS011;62818;49.394;8.686;2024-03-23T10:04:57;6.30;;;2.75;;
60098;SDS011;62818;49.394;8.686;2024-03-23T10:14:58;7.70;;;3.80;;
60098;SDS011;62818;49.394;8.686;2024-03-23T10:19:58;9.48;;;3.47;;
60098;SDS011;62818;49.394;8.686;2024-03-23T10:30:12;9.50;;;3.63;;
60098;SDS011;62818;49.394;8.686;2024-03-23T10:35:18;5.65;;;3.15;;
60098;SDS011;62818;49.394;8.686;2024-03-23T10:40:23;9.98;;;3.28;;
60098;SDS011;62818;49.394;8.686;2024-03-23T10:45:25;8.15;;;3.30;;
60098;SDS011;62818;49.394;8.686;2024-03-23T10:55:26;7.53;;;3.05;;
60098;SDS011;62818;49.394;8.686;2024-03-23T11:00:28;10.98;;;3.70;;
60098;SDS011;62818;49.394;8.686;2024-03-23T11:10:30;7.00;;;2.70;;
60098;SDS011;62818;49.394;8.686;2024-03-23T11:15:33;7.78;;;2.63;;
60098;SDS011;62818;49.394;8.686;2024-03-23T11:25:35;12.00;;;2.63;;
60098;SDS011;62818;49.394;8.686;2024-03-23T11:30:36;7.25;;;2.20;;
60098;SDS011;62818;49.394;8.686;2024-03-23T11:35:38;3.97;;;2.40;;
60098;SDS011;62818;49.394;8.686;2024-03-23T11:45:46;7.65;;;2.75;;
60098;SDS011;62818;49.394;8.686;2024-03-23T11:50:56;11.55;;;2.42;;
60098;SDS011;62818;49.394;8.686;2024-03-23T11:55:58;9.40;;;2.72;;
60098;SDS011;62818;49.394;8.686;2024-03-23T12:01:04;5.88;;;2.63;;
60098;SDS011;62818;49.394;8.686;2024-03-23T12:06:05;17.23;;;2.75;;
60098;SDS011;62818;49.394;8.686;2024-03-23T12:11:07;11.82;;;2.40;;
60098;SDS011;62818;49.394;8.686;2024-03-23T12:16:18;4.13;;;2.42;;
60098;SDS011;62818;49.394;8.686;2024-03-23T12:21:26;7.55;;;3.30;;
60098;SDS011;62818;49.394;8.686;2024-03-23T12:26:27;8.07;;;3.60;;
60098;SDS011;62818;49.394;8.686;2024-03-23T12:31:27;5.30;;;2.77;;
60098;SDS011;62818;49.394;8.686;2024-03-23T12:36:27;7.07;;;3.37;;
60098;SDS011;62818;49.394;8.686;2024-03-23T12:41:28;3.67;;;2.83;;
60098;SDS011;62818;49.394;8.686;2024-03-23T12:46:28;5.80;;;2.67;;
60098;SDS011;62818;49.394;8.686;2024-03-23T12:51:29;11.67;;;5.53;;
60098;SDS011;62818;49.394;8.686;2024-03-23T12:56:29;4.63;;;2.50;;
60098;SDS011;62818;49.394;8.686;2024-03-23T13:01:30;7.75;;;2.95;;
60098;SDS011;62818;49.394;8.686;2024-03-23T13:06:31;9.38;;;2.70;;
60098;SDS011;62818;49.394;8.686;2024-03-23T13:11:34;6.35;;;2.60;;
60098;SDS011;62818;49.394;8.686;2024-03-23T13:16:35;5.03;;;1.90;;
60098;SDS011;62818;49.394;8.686;2024-03-23T13:21:35;3.67;;;1.80;;
60098;SDS011;62818;49.394;8.686;2024-03-23T13:26:36;3.63;;;1.67;;
60098;SDS011;62818;49.394;8.686;2024-03-23T13:31:36;1.80;;;1.70;;
60098;SDS011;62818;49.394;8.686;2024-03-23T13:36:37;2.30;;;2.10;;
60098;SDS011;62818;49.394;8.686;2024-03-23T13:41:38;4.35;;;1.77;;
60098;SDS011;62818;49.394;8.686;2024-03-23T13:46:40;2.45;;;1.98;;
60098;SDS011;62818;49.394;8.686;2024-03-23T13:51:47;2.45;;;1.73;;
60098;SDS011;62818;49.394;8.686;2024-03-23T13:56:48;2.35;;;1.58;;
60098;SDS011;62818;49.394;8.686;2024-03-23T14:01:50;5.20;;;1.58;;
60098;SDS011;62818;49.394;8.686;2024-03-23T14:06:51;3.42;;;1.75;;
60098;SDS011;62818;49.394;8.686;2024-03-23T14:16:52;1.63;;;1.50;;
60098;SDS011;62818;49.394;8.686;2024-03-23T14:21:53;2.47;;;1.67;;
60098;SDS011;62818;49.394;8.686;2024-03-23T14:31:54;2.83;;;1.80;;
60098;SDS011;62818;49.394;8.686;2024-03-23T14:41:55;5.53;;;1.57;;
60098;SDS011;62818;49.394;8.686;2024-03-23T14:51:56;3.23;;;1.80;;
60098;SDS011;62818;49.394;8.686;2024-03-23T15:01:58;2.83;;;1.48;;
60098;SDS011;62818;49.394;8.686;2024-03-23T15:11:59;3.25;;;1.35;;
60098;SDS011;62818;49.394;8.686;2024-03-23T15:22:04;3.30;;;1.50;;
60098;SDS011;62818;49.394;8.686;2024-03-23T15:37:07;5.33;;;1.70;;
60098;SDS011;62818;49.394;8.686;2024-03-23T15:47:08;2.97;;;1.60;;
60098;SDS011;62818;49.394;8.686;2024-03-23T15:52:09;2.90;;;1.75;;
60098;SDS011;62818;49.394;8.686;2024-03-23T15:57:09;10.52;;;2.03;;
60098;SDS011;62818;49.394;8.686;2024-03-23T16:07:11;1.63;;;1.40;;
60098;SDS011;62818;49.394;8.686;2024-03-23T16:12:13;1.75;;;1.65;;
60098;SDS011;62818;49.394;8.686;2024-03-23T16:17:14;2.05;;;1.65;;
60098;SDS011;62818;49.394;8.686;2024-03-23T16:22:14;1.90;;;1.80;;
60098;SDS011;62818;49.394;8.686;2024-03-23T16:27:15;1.50;;;1.40;;
60098;SDS011;62818;49.394;8.686;2024-03-23T16:32:15;1.63;;;1.53;;
60098;SDS011;62818;49.394;8.686;2024-03-23T16:37:17;2.17;;;1.60;;
60098;SDS011;62818;49.394;8.686;2024-03-23T16:42:17;3.27;;;1.90;;
60098;SDS011;62818;49.394;8.686;2024-03-23T16:47:18;39.23;;;5.33;;
60098;SDS011;62818;49.394;8.686;2024-03-23T16:52:18;1.77;;;1.67;;
60098;SDS011;62818;49.394;8.686;2024-03-23T16:57:19;3.55;;;1.63;;
60098;SDS011;62818;49.394;8.686;2024-03-23T17:02:19;2.27;;;1.77;;
60098;SDS011;62818;49.394;8.686;2024-03-23T17:07:20;3.13;;;1.67;;
60098;SDS011;62818;49.394;8.686;2024-03-23T17:12:20;2.30;;;1.70;;
60098;SDS011;62818;49.394;8.686;2024-03-23T17:17:21;2.00;;;1.80;;
60098;SDS011;62818;49.394;8.686;2024-03-23T17:22:21;1.80;;;1.53;;
60098;SDS011;62818;49.394;8.686;2024-03-23T17:27:21;2.07;;;1.87;;
60098;SDS011;62818;49.394;8.686;2024-03-23T17:32:22;2.50;;;1.97;;
60098;SDS011;62818;49.394;8.686;2024-03-23T17:37:22;7.38;;;2.25;;
60098;SDS011;62818;49.394;8.686;2024-03-23T17:42:23;2.27;;;1.80;;
60098;SDS011;62818;49.394;8.686;2024-03-23T17:47:23;3.83;;;1.80;;
60098;SDS011;62818;49.394;8.686;2024-03-23T17:52:24;9.80;;;1.97;;
60098;SDS011;62818;49.394;8.686;2024-03-23T17:57:24;1.33;;;1.30;;
60098;SDS011;62818;49.394;8.686;2024-03-23T18:02:26;3.65;;;1.80;;
60098;SDS011;62818;49.394;8.686;2024-03-23T18:07:27;2.03;;;1.80;;
60098;SDS011;62818;49.394;8.686;2024-03-23T18:12:27;1.73;;;1.63;;
60098;SDS011;62818;49.394;8.686;2024-03-23T18:17:28;1.80;;;1.70;;
60098;SDS011;62818;49.394;8.686;2024-03-23T18:22:28;4.90;;;1.93;;
60098;SDS011;62818;49.394;8.686;2024-03-23T18:27:29;1.87;;;1.77;;
60098;SDS011;62818;49.394;8.686;2024-03-23T18:32:29;6.40;;;1.70;;
60098;SDS011;62818;49.394;8.686;2024-03-23T18:37:29;1.77;;;1.67;;
60098;SDS011;62818;49.394;8.686;2024-03-23T18:42:32;5.53;;;1.80;;
60098;SDS011;62818;49.394;8.686;2024-03-23T18:47:32;3.22;;;1.80;;
60098;SDS011;62818;49.394;8.686;2024-03-23T18:52:33;2.00;;;1.90;;
60098;SDS011;62818;49.394;8.686;2024-03-23T19:02:34;4.13;;;2.03;;
60098;SDS011;62818;49.394;8.686;2024-03-23T19:07:35;2.47;;;2.27;;
60098;SDS011;62818;49.394;8.686;2024-03-23T19:12:35;2.23;;;2.10;;
60098;SDS011;62818;49.394;8.686;2024-03-23T19:17:36;3.00;;;2.43;;
60098;SDS011;62818;49.394;8.686;2024-03-23T19:22:36;3.87;;;2.60;;
60098;SDS011;62818;49.394;8.686;2024-03-23T19:27:37;2.77;;;2.30;;
60098;SDS011;62818;49.394;8.686;2024-03-23T19:32:41;2.90;;;2.70;;
60098;SDS011;62818;49.394;8.686;2024-03-23T19:37:42;3.28;;;2.40;;
60098;SDS011;62818;49.394;8.686;2024-03-23T19:42:42;3.50;;;2.72;;
60098;SDS011;62818;49.394;8.686;2024-03-23T19:47:44;2.92;;;2.30;;
60098;SDS011;62818;49.394;8.686;2024-03-23T19:52:44;3.13;;;2.33;;
60098;SDS011;62818;49.394;8.686;2024-03-23T19:57:47;3.00;;;2.38;;
60098;SDS011;62818;49.394;8.686;2024-03-23T20:02:47;3.27;;;2.60;;
60098;SDS011;62818;49.394;8.686;2024-03-23T20:07:48;2.67;;;2.47;;
60098;SDS011;62818;49.394;8.686;2024-03-23T20:12:48;5.73;;;2.50;;
60098;SDS011;62818;49.394;8.686;2024-03-23T20:17:49;4.28;;;2.80;;
60098;SDS011;62818;49.394;8.686;2024-03-23T20:22:49;4.33;;;2.50;;
60098;SDS011;62818;49.394;8.686;2024-03-23T20:27:50;7.90;;;2.87;;
60098;SDS011;62818;49.394;8.686;2024-03-23T20:32:50;4.90;;;2.60;;
60098;SDS011;62818;49.394;8.686;2024-03-23T20:37:51;4.07;;;2.10;;
60098;SDS011;62818;49.394;8.686;2024-03-23T20:42:52;2.45;;;2.28;;
60098;SDS011;62818;49.394;8.686;2024-03-23T20:47:53;2.60;;;2.40;;
60098;SDS011;62818;49.394;8.686;2024-03-23T20:52:53;3.33;;;2.57;;
60098;SDS011;62818;49.394;8.686;2024-03-23T20:57:54;2.60;;;2.40;;
60098;SDS011;62818;49.394;8.686;2024-03-23T21:02:55;4.37;;;2.70;;
60098;SDS011;62818;49.394;8.686;2024-03-23T21:07:55;5.47;;;2.97;;
60098;SDS011;62818;49.394;8.686;2024-03-23T21:12:56;6.00;;;2.53;;
60098;SDS011;62818;49.394;8.686;2024-03-23T21:17:56;5.53;;;3.40;;
60098;SDS011;62818;49.394;8.686;2024-03-23T21:22:56;3.97;;;2.97;;
60098;SDS011;62818;49.394;8.686;2024-03-23T21:27:57;5.15;;;2.35;;
60098;SDS011;62818;49.394;8.686;2024-03-23T21:32:58;2.35;;;2.15;;
60098;SDS011;62818;49.394;8.686;2024-03-23T21:37:58;2.50;;;2.30;;
60098;SDS011;62818;49.394;8.686;2024-03-23T21:42:59;6.10;;;3.47;;
60098;SDS011;62818;49.394;8.686;2024-03-23T21:47:59;5.07;;;2.83;;
60098;SDS011;62818;49.394;8.686;2024-03-23T21:53:00;3.63;;;2.67;;
60098;SDS011;62818;49.394;8.686;2024-03-23T21:58:00;3.87;;;3.00;;
60098;SDS011;62818;49.394;8.686;2024-03-23T22:03:01;3.23;;;2.80;;
60098;SDS011;62818;49.394;8.686;2024-03-23T22:08:01;3.57;;;2.60;;
60098;SDS011;62818;49.394;8.686;2024-03-23T22:13:02;4.90;;;2.78;;
60098;SDS011;62818;49.394;8.686;2024-03-23T22:18:02;3.88;;;2.80;;
60098;SDS011;62818;49.394;8.686;2024-03-23T22:23:03;2.58;;;2.38;;
60098;SDS011;62818;49.394;8.686;2024-03-23T22:28:04;3.40;;;2.50;;
60098;SDS011;62818;49.394;8.686;2024-03-23T22:33:06;4.50;;;2.38;;
60098;SDS011;62818;49.394;8.686;2024-03-23T22:38:06;2.50;;;2.30;;
60098;SDS011;62818;49.394;8.686;2024-03-23T22:43:07;4.18;;;2.92;;
60098;SDS011;62818;49.394;8.686;2024-03-23T22:53:08;2.63;;;2.43;;
60098;SDS011;62818;49.394;8.686;2024-03-23T22:58:09;3.70;;;2.50;;
60098;SDS011;62818;49.394;8.686;2024-03-23T23:03:13;4.87;;;2.73;;
60098;SDS011;62818;49.394;8.686;2024-03-23T23:08:14;5.15;;;2.95;;
60098;SDS011;62818;49.394;8.686;2024-03-23T23:13:16;4.22;;;2.65;;
60098;SDS011;62818;49.394;8.686;2024-03-23T23:18:16;3.43;;;2.83;;
60098;SDS011;62818;49.394;8.686;2024-03-23T23:23:17;4.05;;;2.60;;
60098;SDS011;62818;49.394;8.686;2024-03-23T23:28:18;3.42;;;2.65;;
60098;SDS011;62818;49.394;8.686;2024-03-23T23:33:19;2.75;;;2.33;;
60098;SDS011;62818;49.394;8.686;2024-03-23T23:38:20;3.50;;;2.97;;
60098;SDS011;62818;49.394;8.686;2024-03-23T23:43:21;8.88;;;3.17;;
60098;SDS011;62818;49.394;8.686;2024-03-23T23:48:22;3.03;;;2.50;;
60098;SDS011;62818;49.394;8.686;2024-03-23T23:53:23;4.05;;;2.65;;
60098;SDS011;62818;49.394;8.686;2024-03-23T23:58:23;2.87;;;2.57;;
